^^
Meteo Knjazevac Station Historical Data
Daily Summary for March 15, 2021 Units:  English    Metric   Both
Daily Weekly Monthly Yearly Custom
  High: Low: Average:
Temperature: 88.7 °F 50.5 °F 67.8 °F
Dew Point: 61 °F 46.4 °F 53.1 °F
Humidity: 88% 34% 63%
Wind Speed: 9mph 0mph 1.5mph
Wind Gust: 15mph - -
Wind- - SW
Pressure: 30.15 in 30.06 in -
Precipitation: 0.00 in    
Historical Graphs
 
 
Tabular Data for March 15, 2021
Time Temperature Dew Point Pressure Wind Wind Speed Wind Gust Humidity Rainfall Rate (Hourly) solar Conditions
00:00 59.5 °F 50.5 °F 30.12 in NW 2 mph 3 mph 72% 0.00 in 0 W/m2
00:10 59.4 °F 50.3 °F 30.12 in WNW 1 mph 3 mph 72% 0.00 in 0 W/m2
00:20 59 °F 50 °F 30.12 in WNW 1 mph 4 mph 72% 0.00 in 0 W/m2
00:30 58.6 °F 50 °F 30.12 in WNW 2 mph 5 mph 73% 0.00 in 0 W/m2
00:40 58.3 °F 49.7 °F 30.12 in Calm   5 mph 73% 0.00 in 0 W/m2
00:50 57.7 °F 49.1 °F 30.12 in Calm   2 mph 73% 0.00 in 0 W/m2
01:00 57.4 °F 49.2 °F 30.12 in Calm   2 mph 74% 0.00 in 0 W/m2
01:10 57.2 °F 49 °F 30.12 in Calm   1 mph 74% 0.00 in 0 W/m2
01:20 56.8 °F 48.6 °F 30.12 in Calm   1 mph 74% 0.00 in 0 W/m2
01:30 56.7 °F 48.8 °F 30.12 in Calm   2 mph 75% 0.00 in 0 W/m2
01:40 56.2 °F 48.3 °F 30.12 in Calm   1 mph 75% 0.00 in 0 W/m2
01:50 55.8 °F 48.7 °F 30.12 in Calm   2 mph 77% 0.00 in 0 W/m2
02:00 55.4 °F 48.3 °F 30.12 in Calm   1 mph 77% 0.00 in 0 W/m2
02:10 55.2 °F 48.1 °F 30.12 in Calm   2 mph 77% 0.00 in 0 W/m2
02:20 54.9 °F 48.1 °F 30.12 in Calm   2 mph 78% 0.00 in 0 W/m2
02:30 54.7 °F 48 °F 30.12 in Calm   1 mph 78% 0.00 in 0 W/m2
02:40 54.3 °F 47.9 °F 30.12 in Calm   2 mph 79% 0.00 in 0 W/m2
02:50 54.1 °F 47.8 °F 30.13 in Calm   2 mph 79% 0.00 in 0 W/m2
03:00 54.1 °F 47.8 °F 30.13 in Calm   2 mph 79% 0.00 in 0 W/m2
03:10 54 °F 47.9 °F 30.13 in Calm   1 mph 80% 0.00 in 0 W/m2
03:20 53.8 °F 47.4 °F 30.12 in Calm   1 mph 79% 0.00 in 0 W/m2
03:30 53.6 °F 47.6 °F 30.13 in Calm   2 mph 80% 0.00 in 0 W/m2
03:40 53.4 °F 47.4 °F 30.13 in Calm   1 mph 80% 0.00 in 0 W/m2
03:50 53.2 °F 47.2 °F 30.13 in Calm   2 mph 80% 0.00 in 0 W/m2
04:00 53.2 °F 47.6 °F 30.13 in Calm   2 mph 81% 0.00 in 0 W/m2
04:10 52.9 °F 47.2 °F 30.13 in Calm   2 mph 81% 0.00 in 0 W/m2
04:20 52.7 °F 47 °F 30.13 in NW 1 mph 2 mph 81% 0.00 in 0 W/m2
04:30 52.5 °F 47.5 °F 30.13 in West 2 mph 2 mph 83% 0.00 in 0 W/m2
04:40 52.3 °F 47.3 °F 30.13 in West 1 mph 2 mph 83% 0.00 in 0 W/m2
04:50 52.2 °F 47.5 °F 30.13 in WNW 1 mph 4 mph 84% 0.00 in 0 W/m2
05:00 52.2 °F 47.5 °F 30.13 in WNW 1 mph 3 mph 84% 0.00 in 0 W/m2
05:10 51.8 °F 47.1 °F 30.13 in WSW 2 mph 3 mph 84% 0.00 in 0 W/m2
05:20 51.6 °F 46.9 °F 30.14 in WSW 2 mph 3 mph 84% 0.00 in 0 W/m2
05:30 51.4 °F 47.1 °F 30.14 in WNW 1 mph 2 mph 85% 0.00 in 0 W/m2
05:40 51.4 °F 47.1 °F 30.14 in Calm   2 mph 85% 0.00 in 0 W/m2
05:50 51.3 °F 46.9 °F 30.14 in NW 1 mph 2 mph 85% 0.00 in 0 W/m2
06:00 51.3 °F 46.9 °F 30.14 in WNW 1 mph 2 mph 85% 0.00 in 0 W/m2
06:10 50.9 °F 46.6 °F 30.14 in Calm   1 mph 85% 0.00 in 4 W/m2
06:20 50.7 °F 46.4 °F 30.14 in WSW 1 mph 2 mph 85% 0.00 in 10 W/m2
06:30 50.5 °F 46.5 °F 30.14 in West 1 mph 4 mph 86% 0.00 in 19 W/m2
06:40 50.7 °F 47.3 °F 30.15 in West 2 mph 6 mph 88% 0.00 in 30 W/m2
06:50 50.9 °F 46.9 °F 30.15 in NNW 1 mph 2 mph 86% 0.00 in 41 W/m2
07:00 51.1 °F 47.6 °F 30.15 in West 2 mph 3 mph 88% 0.00 in 66 W/m2
07:10 51.1 °F 47 °F 30.15 in West 2 mph 3 mph 86% 0.00 in 92 W/m2
07:20 51.4 °F 48 °F 30.15 in WNW 1 mph 4 mph 88% 0.00 in 117 W/m2
07:30 51.8 °F 48.3 °F 30.15 in WNW 1 mph 2 mph 88% 0.00 in 146 W/m2
07:40 52.3 °F 48.9 °F 30.15 in Calm   2 mph 88% 0.00 in 176 W/m2
07:50 52.9 °F 49.4 °F 30.15 in Calm   1 mph 88% 0.00 in 203 W/m2
08:00 53.8 °F 50.3 °F 30.15 in Calm   2 mph 88% 0.00 in 237 W/m2
08:10 54.7 °F 50.6 °F 30.15 in West 1 mph 2 mph 86% 0.00 in 262 W/m2
08:20 55.7 °F 51.3 °F 30.15 in Calm   3 mph 85% 0.00 in 318 W/m2
08:30 57.3 °F 52.5 °F 30.15 in SW 1 mph 2 mph 84% 0.00 in 364 W/m2
08:40 59.9 °F 53.7 °F 30.15 in SW 1 mph 2 mph 80% 0.00 in 337 W/m2
08:50 62 °F 55.1 °F 30.15 in West 1 mph 3 mph 78% 0.00 in 338 W/m2
09:00 64 °F 55.2 °F 30.15 in NW 2 mph 5 mph 73% 0.00 in 410 W/m2
09:10 65.8 °F 55.7 °F 30.15 in Calm   3 mph 70% 0.00 in 213 W/m2
09:20 67.4 °F 56.5 °F 30.15 in West 1 mph 2 mph 68% 0.00 in 368 W/m2
09:30 69.1 °F 56.4 °F 30.15 in SW 1 mph 2 mph 64% 0.00 in 445 W/m2
09:40 70.5 °F 57.3 °F 30.14 in SW 1 mph 2 mph 63% 0.00 in 558 W/m2
09:50 72.1 °F 57.5 °F 30.14 in SW 1 mph 2 mph 60% 0.00 in 582 W/m2
10:00 73.6 °F 58.4 °F 30.14 in Calm   2 mph 59% 0.00 in 390 W/m2
10:10 74.6 °F 58.4 °F 30.14 in WSW 1 mph 3 mph 57% 0.00 in 625 W/m2
10:20 75.6 °F 58.3 °F 30.14 in West 1 mph 4 mph 55% 0.00 in 644 W/m2
10:30 76.4 °F 58 °F 30.14 in WSW 1 mph 3 mph 53% 0.00 in 244 W/m2
10:40 76.6 °F 58.2 °F 30.14 in Calm   2 mph 53% 0.00 in 217 W/m2
10:50 77.9 °F 58.8 °F 30.13 in Calm   2 mph 52% 0.00 in 695 W/m2
11:00 79.5 °F 59.2 °F 30.13 in ESE 1 mph 4 mph 50% 0.00 in 709 W/m2
11:10 80.2 °F 58.8 °F 30.13 in SSE 1 mph 4 mph 48% 0.00 in 722 W/m2
11:20 81.3 °F 60.3 °F 30.13 in ENE 2 mph 5 mph 49% 0.00 in 733 W/m2
11:30 82.2 °F 60.6 °F 30.12 in ENE 2 mph 6 mph 48% 0.00 in 742 W/m2
11:40 83.3 °F 61 °F 30.12 in NNE 2 mph 6 mph 47% 0.00 in 750 W/m2
11:50 84.2 °F 60.6 °F 30.12 in North 3 mph 6 mph 45% 0.00 in 757 W/m2
12:00 84.9 °F 60.6 °F 30.11 in WNW 2 mph 5 mph 44% 0.00 in 761 W/m2
12:10 85.3 °F 58.2 °F 30.11 in East 3 mph 7 mph 40% 0.00 in 764 W/m2
12:20 85.5 °F 60.4 °F 30.11 in East 2 mph 7 mph 43% 0.00 in 766 W/m2
12:30 85.8 °F 58.7 °F 30.10 in WNW 2 mph 6 mph 40% 0.00 in 766 W/m2
12:40 86.5 °F 58.6 °F 30.10 in NNE 3 mph 9 mph 39% 0.00 in 764 W/m2
12:50 86.7 °F 58.8 °F 30.10 in ENE 2 mph 7 mph 39% 0.00 in 760 W/m2
13:00 87.1 °F 58.4 °F 30.10 in SSW 2 mph 6 mph 38% 0.00 in 755 W/m2
13:10 87.4 °F 58.7 °F 30.09 in SW 3 mph 6 mph 38% 0.00 in 748 W/m2
13:20 88 °F 58.4 °F 30.09 in SSW 2 mph 7 mph 37% 0.00 in 740 W/m2
13:30 88 °F 56.9 °F 30.09 in SW 2 mph 7 mph 35% 0.00 in 730 W/m2
13:40 88.3 °F 58.8 °F 30.08 in West 2 mph 8 mph 37% 0.00 in 719 W/m2
13:50 88.5 °F 57.4 °F 30.08 in West 2 mph 7 mph 35% 0.00 in 706 W/m2
14:00 88.5 °F 57.4 °F 30.07 in West 5 mph 7 mph 35% 0.00 in 691 W/m2
14:10 88.7 °F 57.5 °F 30.07 in West 2 mph 7 mph 35% 0.00 in 675 W/m2
14:20 88.7 °F 59.1 °F 30.06 in WSW 2 mph 6 mph 37% 0.00 in 658 W/m2
14:30 88.7 °F 56.7 °F 30.06 in West 1 mph 5 mph 34% 0.00 in 640 W/m2
14:40 88.7 °F 57.5 °F 30.06 in West 2 mph 7 mph 35% 0.00 in 139 W/m2
14:50 87.6 °F 56.6 °F 30.06 in West 2 mph 8 mph 35% 0.00 in 153 W/m2
15:00 86.9 °F 56 °F 30.06 in Calm   6 mph 35% 0.00 in 576 W/m2
15:10 86.5 °F 57.2 °F 30.06 in Calm   5 mph 37% 0.00 in 123 W/m2
15:20 85.8 °F 56.5 °F 30.06 in NW 3 mph 6 mph 37% 0.00 in 137 W/m2
15:30 85.1 °F 57.4 °F 30.06 in West 6 mph 9 mph 39% 0.00 in 140 W/m2
15:40 84.6 °F 56.9 °F 30.06 in WNW 5 mph 10 mph 39% 0.00 in 117 W/m2
15:50 84 °F 58.5 °F 30.06 in WNW 5 mph 9 mph 42% 0.00 in 241 W/m2
16:00 84 °F 55.7 °F 30.07 in WNW 8 mph 13 mph 38% 0.00 in 420 W/m2
16:10 83.3 °F 52.8 °F 30.06 in West 9 mph 15 mph 35% 0.00 in 177 W/m2
16:20 82.6 °F 53.7 °F 30.07 in WNW 5 mph 14 mph 37% 0.00 in 242 W/m2
16:30 82.6 °F 53.7 °F 30.06 in WNW 2 mph 8 mph 37% 0.00 in 219 W/m2
16:40 82.4 °F 53.5 °F 30.06 in NW 2 mph 6 mph 37% 0.00 in 302 W/m2
16:50 82.4 °F 54.2 °F 30.06 in WNW 2 mph 7 mph 38% 0.00 in 265 W/m2
17:00 82.4 °F 54.2 °F 30.06 in West 2 mph 6 mph 38% 0.00 in 242 W/m2
17:10 82.4 °F 54.3 °F 30.07 in South 1 mph 5 mph 38% 0.00 in 157 W/m2
17:20 82.6 °F 54.4 °F 30.07 in WSW 3 mph 6 mph 38% 0.00 in 143 W/m2
17:30 82.4 °F 53.5 °F 30.07 in SW 3 mph 7 mph 37% 0.00 in 143 W/m2
17:40 82.2 °F 53.3 °F 30.06 in SW 1 mph 5 mph 37% 0.00 in 109 W/m2
17:50 81.9 °F 55.2 °F 30.06 in South 1 mph 5 mph 40% 0.00 in 84 W/m2
18:00 81.5 °F 57.5 °F 30.06 in ESE 3 mph 6 mph 44% 0.00 in 67 W/m2
18:10 80.2 °F 59.9 °F 30.06 in East 5 mph 9 mph 50% 0.00 in 46 W/m2
18:20 79 °F 60.4 °F 30.06 in ESE 3 mph 7 mph 53% 0.00 in 23 W/m2
18:30 77.9 °F 60.4 °F 30.06 in SE 3 mph 8 mph 55% 0.00 in 10 W/m2
18:40 77 °F 60.6 °F 30.07 in ESE 3 mph 7 mph 57% 0.00 in 4 W/m2
18:50 76.3 °F 60.9 °F 30.07 in ESE 2 mph 5 mph 59% 0.00 in 0 W/m2
19:00 75.6 °F 60.2 °F 30.08 in ENE 3 mph 10 mph 59% 0.00 in 0 W/m2
19:10 74.8 °F 59.5 °F 30.08 in ENE 2 mph 7 mph 59% 0.00 in 0 W/m2
19:20 74.1 °F 60.3 °F 30.08 in NNE 5 mph 6 mph 62% 0.00 in 0 W/m2
19:30 73.4 °F 59.6 °F 30.08 in NE 5 mph 8 mph 62% 0.00 in 0 W/m2
19:40 72.7 °F 58.9 °F 30.08 in ENE 1 mph 6 mph 62% 0.00 in 0 W/m2
19:50 71.8 °F 56.7 °F 30.08 in Calm   2 mph 59% 0.00 in 0 W/m2
20:00 70.5 °F 55.5 °F 30.09 in Calm   2 mph 59% 0.00 in 0 W/m2
20:10 69.4 °F 54.5 °F 30.09 in WSW 1 mph 2 mph 59% 0.00 in 0 W/m2
20:20 68.2 °F 53.7 °F 30.09 in Calm   3 mph 60% 0.00 in 0 W/m2
20:30 67.3 °F 53.8 °F 30.09 in West 1 mph 2 mph 62% 0.00 in 0 W/m2
20:40 66.4 °F 53.4 °F 30.09 in WSW 2 mph 4 mph 63% 0.00 in 0 W/m2
20:50 65.3 °F 52.4 °F 30.09 in WSW 2 mph 4 mph 63% 0.00 in 0 W/m2
21:00 64.6 °F 52.1 °F 30.09 in WSW 2 mph 5 mph 64% 0.00 in 0 W/m2
21:10 64 °F 52 °F 30.10 in WNW 1 mph 3 mph 65% 0.00 in 0 W/m2
21:20 63.5 °F 52.3 °F 30.10 in WNW 1 mph 2 mph 67% 0.00 in 0 W/m2
21:30 62.6 °F 50.7 °F 30.10 in WSW 1 mph 2 mph 65% 0.00 in 0 W/m2
21:40 61.9 °F 50.8 °F 30.10 in WSW 1 mph 3 mph 67% 0.00 in 0 W/m2
22:00 61.3 °F 51 °F 30.10 in Calm   2 mph 69% 0.00 in 0 W/m2
22:10 61 °F 50.7 °F 30.10 in Calm   2 mph 69% 0.00 in 0 W/m2
22:20 60.4 °F 50.2 °F 30.10 in Calm   2 mph 69% 0.00 in 0 W/m2
22:30 59.7 °F 49.5 °F 30.10 in Calm   2 mph 69% 0.00 in 0 W/m2
22:40 59.2 °F 49.4 °F 30.10 in West 1 mph 1 mph 70% 0.00 in 0 W/m2
22:50 58.5 °F 49.5 °F 30.11 in West 1 mph 3 mph 72% 0.00 in 0 W/m2
23:00 57.9 °F 49.7 °F 30.11 in West 3 mph 7 mph 74% 0.00 in 0 W/m2
23:10 57.9 °F 49.7 °F 30.11 in WSW 1 mph 6 mph 74% 0.00 in 0 W/m2
23:20 57.6 °F 49.3 °F 30.11 in West 2 mph 6 mph 74% 0.00 in 0 W/m2
23:30 57.4 °F 49.2 °F 30.11 in WNW 2 mph 5 mph 74% 0.00 in 0 W/m2
23:40 57.3 °F 49.4 °F 30.11 in WNW 1 mph 5 mph 75% 0.00 in 0 W/m2
23:50 56.9 °F 49.1 °F 30.11 in West 1 mph 3 mph 75% 0.00 in 0 W/m2
Knjazevac, Serbia
Compliments of Weather Underground - 2 mb